Řízení letového provozu České republiky  
Aktualizace dat:  28.06.2017 05:12:10 UTC English version
   METEO Zobrazení stránky:  28.06.2017 05:14:44 UTC  
vysvětlivky
METAR EDDB 280450Z 06008KT CAVOK 15/11 Q1004 NOSIG=
METAR EDDC 280450Z 09007KT 9000 NSC 17/15 Q1003 TEMPO BKN008=
METAR EDDE 280450Z 03004KT 5000 BR NSC 15/14 Q1002 TEMPO 1200 BCFG=
METAR EDDF 280450Z 20003KT 180V240 9999 FEW017 SCT100 BKN180 18/17 Q1000 NOSIG=
METAR EDDM 280450Z 31003KT 270V040 9999 FEW008 BKN110 17/16 Q1002 NOSIG=
METAR EDDN 280450Z 10006KT CAVOK 17/16 Q1001 TEMPO SHRA BKN040CB=
METAR EDDP 280450Z 08010KT CAVOK 16/13 Q1003 NOSIG=
METAR EDDT 280450Z 07005KT 010V110 CAVOK 15/10 Q1004 NOSIG=
METAR EDQM 280450Z 00000KT CAVOK 16/13 Q1003=
METAR EPBY 280500Z 07009KT CAVOK 15/11 Q1007 =
METAR EPGD 280500Z 07009KT CAVOK 15/11 Q1010 =
METAR EPKK 280500Z 05008KT CAVOK 20/17 Q1006 =
METAR EPKT 280500Z 08005KT 050V110 CAVOK 20/16 Q1006 =
METAR EPLL 280500Z 11006KT 060V140 9999 -SHRA FEW005 SCT033CB BKN043 17/16 Q1007 RETS =
METAR EPPO 280500Z 06007KT CAVOK 17/12 Q1005 =
METAR EPRZ 280500Z 12003KT 090V150 CAVOK 21/17 Q1008 =
METAR EPWA 280500Z 13010KT 6000 SHRA SCT004 BKN050CB 17/17 Q1007 TEMPO BKN004=
METAR EPWR 280500Z 13008KT 9000 OVC005 17/16 Q1005 =
METAR LHBP 280500Z 12005KT 100V160 CAVOK 24/17 Q1007 NOSIG=
METAR LHSM 280445Z 15003KT CAVOK 21/19 Q1006=
METAR COR LKCV 280508Z 10002KT 0300 FG VV001 16/16 Q1003=
METAR LKKB 280500Z VRB03KT 0500 FG VV002 16/16 Q1004 NOSIG=
METAR LKKU 280500Z 16007KT 130V210 CAVOK 24/15 Q1004=
METAR LKKV 280500Z 00000KT 6000 NSC 14/14 Q1004 RMK REG QNH 1002=
METAR LKLN 280500Z AUTO 03003KT 340V070 4200 BR OVC004 15/14 Q1003=
METAR LKMT 280500Z VRB02KT 7000 NSC 19/17 Q1005 NOSIG RMK REG QNH 1002=
METAR LKNA 280500Z 11005KT CAVOK 19/16 Q1004 NOSIG=
METAR LKPD 280500Z VRB01KT 0300 R27/0300N FG VV001 16/16 Q1003 NOSIG=
METAR LKPR 280500Z 01003KT 320V060 0300 R24/0450D R30/0350N FG VV001 16/15 Q1004 BECMG 0700 FG VV002 RMK REG QNH 1002=
METAR LKTB 280500Z 12006KT CAVOK 22/16 Q1004 NOSIG RMK REG QNH 1002=
METAR LKVO NIL
METAR LOWI 280450Z 27013KT 9999 SCT060 SCT120 BKN300 18/14 Q1004 NOSIG=
METAR LOWL 280450Z 09005KT 070V130 9999 VCFG FEW002 BKN130 18/16 Q1002 BECMG NSW=
METAR LOWS 280450Z 17009KT 9999 FEW070 BKN110 19/14 Q1001 NOSIG=
METAR LOWW 280450Z 16010KT CAVOK 22/17 Q1003 NOSIG=
METAR LZIB 280500Z 03004KT 350V070 CAVOK 21/17 Q1005 NOSIG=
METAR LZKZ 280500Z VRB02KT CAVOK 22/18 Q1009 NOSIG=
METAR LZPP 280500Z 13012KT CAVOK 24/16 Q1005=
METAR LZSL 280500Z 05004KT 360V080 CAVOK 19/15 Q1008=
METAR LZTT 280500Z VRB01KT 9999 FEW043 SCT090 20/16 Q1010 NOSIG=
METAR LZZI 280500Z VRB01KT CAVOK 19/16 Q1006=